sensor_id;sensor_type;location;lat;lon;timestamp;temperature;humidity
45329;DHT22;72636;48.160;11.428;2024-01-27T13:44:26;12.30;98.90
45329;DHT22;72636;48.160;11.428;2024-01-27T13:46:51;11.40;96.90
45329;DHT22;72636;48.160;11.428;2024-01-27T13:49:17;11.10;95.30
45329;DHT22;72636;48.160;11.428;2024-01-27T13:51:43;11.00;96.30
45329;DHT22;72636;48.160;11.428;2024-01-27T13:54:09;11.50;99.90
45329;DHT22;72636;48.160;11.428;2024-01-27T13:56:35;12.10;96.90
45329;DHT22;72636;48.160;11.428;2024-01-27T13:59:00;12.30;93.10
45329;DHT22;72636;48.160;11.428;2024-01-27T14:01:26;12.30;94.90
45329;DHT22;72636;48.160;11.428;2024-01-27T14:03:52;12.10;98.40
45329;DHT22;72636;48.160;11.428;2024-01-27T14:06:18;11.60;93.50
45329;DHT22;72636;48.160;11.428;2024-01-27T14:08:43;11.30;92.90
45329;DHT22;72636;48.160;11.428;2024-01-27T14:11:10;11.10;98.10
45329;DHT22;72636;48.160;11.428;2024-01-27T14:13:35;11.10;98.10
45329;DHT22;72636;48.160;11.428;2024-01-27T14:16:01;10.90;96.10
45329;DHT22;72636;48.160;11.428;2024-01-27T14:18:27;10.60;99.90
45329;DHT22;72636;48.160;11.428;2024-01-27T14:20:53;10.70;98.80
45329;DHT22;72636;48.160;11.428;2024-01-27T14:23:19;11.00;98.70
45329;DHT22;72636;48.160;11.428;2024-01-27T14:25:45;11.00;99.90
45329;DHT22;72636;48.160;11.428;2024-01-27T14:28:10;10.80;99.90
45329;DHT22;72636;48.160;11.428;2024-01-27T14:30:37;10.70;99.90
45329;DHT22;72636;48.160;11.428;2024-01-27T14:33:05;10.50;99.90
45329;DHT22;72636;48.160;11.428;2024-01-27T14:35:31;10.30;99.20
45329;DHT22;72636;48.160;11.428;2024-01-27T14:37:56;10.00;99.90
45329;DHT22;72636;48.160;11.428;2024-01-27T14:40:22;9.80;99.90
45329;DHT22;72636;48.160;11.428;2024-01-27T14:42:51;9.70;99.90
45329;DHT22;72636;48.160;11.428;2024-01-27T14:45:17;9.60;99.90
45329;DHT22;72636;48.160;11.428;2024-01-27T14:47:42;9.50;99.90
45329;DHT22;72636;48.160;11.428;2024-01-27T14:50:08;9.40;99.90
45329;DHT22;72636;48.160;11.428;2024-01-27T14:52:34;9.30;99.90
45329;DHT22;72636;48.160;11.428;2024-01-27T14:55:00;9.20;99.90
45329;DHT22;72636;48.160;11.428;2024-01-27T14:57:27;9.10;99.90
45329;DHT22;72636;48.160;11.428;2024-01-27T14:59:53;9.10;99.90
45329;DHT22;72636;48.160;11.428;2024-01-27T15:02:19;8.90;99.90
45329;DHT22;72636;48.160;11.428;2024-01-27T15:04:44;8.90;99.90
45329;DHT22;72636;48.160;11.428;2024-01-27T15:07:10;8.80;99.90
45329;DHT22;72636;48.160;11.428;2024-01-27T15:09:40;8.60;99.90
45329;DHT22;72636;48.160;11.428;2024-01-27T15:12:06;8.60;99.90
45329;DHT22;72636;48.160;11.428;2024-01-27T15:14:32;8.50;99.90
45329;DHT22;72636;48.160;11.428;2024-01-27T15:16:58;8.40;99.90
45329;DHT22;72636;48.160;11.428;2024-01-27T15:19:23;8.20;99.90
45329;DHT22;72636;48.160;11.428;2024-01-27T15:21:49;8.10;99.90
45329;DHT22;72636;48.160;11.428;2024-01-27T15:24:15;8.00;99.90
45329;DHT22;72636;48.160;11.428;2024-01-27T15:26:42;7.90;99.90
45329;DHT22;72636;48.160;11.428;2024-01-27T15:29:07;7.80;99.90
45329;DHT22;72636;48.160;11.428;2024-01-27T15:31:33;7.70;99.90
45329;DHT22;72636;48.160;11.428;2024-01-27T15:33:59;7.70;99.90
45329;DHT22;72636;48.160;11.428;2024-01-27T15:36:26;7.60;99.90
45329;DHT22;72636;48.160;11.428;2024-01-27T15:38:52;7.50;99.90
45329;DHT22;72636;48.160;11.428;2024-01-27T15:41:17;7.40;99.90
45329;DHT22;72636;48.160;11.428;2024-01-27T15:43:44;7.40;99.90
45329;DHT22;72636;48.160;11.428;2024-01-27T15:46:13;7.30;99.90
45329;DHT22;72636;48.160;11.428;2024-01-27T15:48:39;7.20;99.90
45329;DHT22;72636;48.160;11.428;2024-01-27T15:51:06;7.10;99.90
45329;DHT22;72636;48.160;11.428;2024-01-27T15:53:31;7.00;99.90
45329;DHT22;72636;48.160;11.428;2024-01-27T15:55:57;6.90;99.90
45329;DHT22;72636;48.160;11.428;2024-01-27T15:58:23;6.70;99.90
45329;DHT22;72636;48.160;11.428;2024-01-27T16:00:49;6.60;99.90
45329;DHT22;72636;48.160;11.428;2024-01-27T16:03:15;6.40;99.90
45329;DHT22;72636;48.160;11.428;2024-01-27T16:05:41;6.30;99.90
45329;DHT22;72636;48.160;11.428;2024-01-27T16:08:07;6.10;99.90
45329;DHT22;72636;48.160;11.428;2024-01-27T16:10:36;6.10;99.90
45329;DHT22;72636;48.160;11.428;2024-01-27T16:13:02;6.00;99.90
45329;DHT22;72636;48.160;11.428;2024-01-27T16:15:28;5.90;99.90
45329;DHT22;72636;48.160;11.428;2024-01-27T16:17:53;5.70;99.90
45329;DHT22;72636;48.160;11.428;2024-01-27T16:20:19;5.50;99.90
45329;DHT22;72636;48.160;11.428;2024-01-27T16:22:45;5.40;99.90
45329;DHT22;72636;48.160;11.428;2024-01-27T16:25:10;5.30;99.90
45329;DHT22;72636;48.160;11.428;2024-01-27T16:27:36;5.30;99.90
45329;DHT22;72636;48.160;11.428;2024-01-27T16:30:02;5.10;99.90
45329;DHT22;72636;48.160;11.428;2024-01-27T16:32:28;5.10;99.90
45329;DHT22;72636;48.160;11.428;2024-01-27T16:34:54;5.00;99.90
45329;DHT22;72636;48.160;11.428;2024-01-27T16:37:19;5.00;99.90
45329;DHT22;72636;48.160;11.428;2024-01-27T16:39:46;4.90;99.90
45329;DHT22;72636;48.160;11.428;2024-01-27T16:42:12;4.80;99.90
45329;DHT22;72636;48.160;11.428;2024-01-27T16:44:38;4.60;99.90
45329;DHT22;72636;48.160;11.428;2024-01-27T16:47:04;4.50;99.90
45329;DHT22;72636;48.160;11.428;2024-01-27T16:49:30;4.40;99.90
45329;DHT22;72636;48.160;11.428;2024-01-27T16:51:56;4.30;99.90
45329;DHT22;72636;48.160;11.428;2024-01-27T16:54:22;4.20;99.90
45329;DHT22;72636;48.160;11.428;2024-01-27T16:56:48;4.20;99.90
45329;DHT22;72636;48.160;11.428;2024-01-27T16:59:13;4.10;99.90
45329;DHT22;72636;48.160;11.428;2024-01-27T17:01:39;4.00;99.90
45329;DHT22;72636;48.160;11.428;2024-01-27T17:04:05;3.90;99.90
45329;DHT22;72636;48.160;11.428;2024-01-27T17:06:32;3.80;99.90
45329;DHT22;72636;48.160;11.428;2024-01-27T17:08:58;3.80;99.90
45329;DHT22;72636;48.160;11.428;2024-01-27T17:11:26;3.80;99.90
45329;DHT22;72636;48.160;11.428;2024-01-27T17:13:52;3.70;99.90
45329;DHT22;72636;48.160;11.428;2024-01-27T17:16:17;3.60;99.90
45329;DHT22;72636;48.160;11.428;2024-01-27T17:18:43;3.50;99.90
45329;DHT22;72636;48.160;11.428;2024-01-27T17:21:10;3.40;99.90
45329;DHT22;72636;48.160;11.428;2024-01-27T17:23:35;3.40;99.90
45329;DHT22;72636;48.160;11.428;2024-01-27T17:26:02;3.30;99.90
45329;DHT22;72636;48.160;11.428;2024-01-27T17:28:28;3.20;99.90
45329;DHT22;72636;48.160;11.428;2024-01-27T17:30:54;3.20;99.90
45329;DHT22;72636;48.160;11.428;2024-01-27T17:33:20;3.10;99.90
45329;DHT22;72636;48.160;11.428;2024-01-27T17:35:46;3.00;99.90
45329;DHT22;72636;48.160;11.428;2024-01-27T17:38:11;3.00;99.90
45329;DHT22;72636;48.160;11.428;2024-01-27T17:40:37;3.00;99.90
45329;DHT22;72636;48.160;11.428;2024-01-27T17:43:03;3.00;99.90
45329;DHT22;72636;48.160;11.428;2024-01-27T17:45:29;2.90;99.90
45329;DHT22;72636;48.160;11.428;2024-01-27T17:47:54;2.90;99.90
45329;DHT22;72636;48.160;11.428;2024-01-27T17:50:21;2.80;99.90
45329;DHT22;72636;48.160;11.428;2024-01-27T17:52:48;2.80;99.90
45329;DHT22;72636;48.160;11.428;2024-01-27T17:55:13;2.80;99.90
45329;DHT22;72636;48.160;11.428;2024-01-27T17:57:41;2.70;99.90
45329;DHT22;72636;48.160;11.428;2024-01-27T18:00:12;2.60;99.90
45329;DHT22;72636;48.160;11.428;2024-01-27T18:02:44;2.60;99.90
45329;DHT22;72636;48.160;11.428;2024-01-27T18:05:09;2.60;99.90
45329;DHT22;72636;48.160;11.428;2024-01-27T18:07:35;2.50;99.90
45329;DHT22;72636;48.160;11.428;2024-01-27T18:10:01;2.40;99.90
45329;DHT22;72636;48.160;11.428;2024-01-27T18:12:26;2.40;99.90
45329;DHT22;72636;48.160;11.428;2024-01-27T18:14:52;2.40;99.90
45329;DHT22;72636;48.160;11.428;2024-01-27T18:17:18;2.30;99.90
45329;DHT22;72636;48.160;11.428;2024-01-27T18:19:43;2.30;99.90
45329;DHT22;72636;48.160;11.428;2024-01-27T18:22:09;2.20;99.90
45329;DHT22;72636;48.160;11.428;2024-01-27T18:24:36;2.20;99.90
45329;DHT22;72636;48.160;11.428;2024-01-27T18:27:02;2.20;99.90
45329;DHT22;72636;48.160;11.428;2024-01-27T18:29:28;2.10;99.90
45329;DHT22;72636;48.160;11.428;2024-01-27T18:31:55;2.00;99.90
45329;DHT22;72636;48.160;11.428;2024-01-27T18:34:22;2.00;99.90
45329;DHT22;72636;48.160;11.428;2024-01-27T18:36:48;2.00;99.90
45329;DHT22;72636;48.160;11.428;2024-01-27T18:39:14;1.90;99.90
45329;DHT22;72636;48.160;11.428;2024-01-27T18:41:45;1.90;99.90
45329;DHT22;72636;48.160;11.428;2024-01-27T18:44:11;1.90;99.90
45329;DHT22;72636;48.160;11.428;2024-01-27T18:46:39;1.90;99.90
45329;DHT22;72636;48.160;11.428;2024-01-27T18:49:05;1.90;99.90
45329;DHT22;72636;48.160;11.428;2024-01-27T18:51:31;1.80;99.90
45329;DHT22;72636;48.160;11.428;2024-01-27T18:53:57;1.80;99.90
45329;DHT22;72636;48.160;11.428;2024-01-27T18:56:23;1.70;99.90
45329;DHT22;72636;48.160;11.428;2024-01-27T18:58:49;1.70;99.90
45329;DHT22;72636;48.160;11.428;2024-01-27T19:01:16;1.70;99.90
45329;DHT22;72636;48.160;11.428;2024-01-27T19:03:41;1.60;99.90
45329;DHT22;72636;48.160;11.428;2024-01-27T19:06:07;1.60;99.90
45329;DHT22;72636;48.160;11.428;2024-01-27T19:08:33;1.60;99.90
45329;DHT22;72636;48.160;11.428;2024-01-27T19:10:59;1.60;99.90
45329;DHT22;72636;48.160;11.428;2024-01-27T19:13:25;1.60;99.90
45329;DHT22;72636;48.160;11.428;2024-01-27T19:15:51;1.60;99.90
45329;DHT22;72636;48.160;11.428;2024-01-27T19:18:24;1.50;99.90
45329;DHT22;72636;48.160;11.428;2024-01-27T19:20:49;1.50;99.90
45329;DHT22;72636;48.160;11.428;2024-01-27T19:23:16;1.50;99.90
45329;DHT22;72636;48.160;11.428;2024-01-27T19:25:41;1.50;99.90
45329;DHT22;72636;48.160;11.428;2024-01-27T19:28:08;1.50;99.90
45329;DHT22;72636;48.160;11.428;2024-01-27T19:30:34;1.40;99.90
45329;DHT22;72636;48.160;11.428;2024-01-27T19:32:59;1.30;99.90
45329;DHT22;72636;48.160;11.428;2024-01-27T19:35:25;1.30;99.90
45329;DHT22;72636;48.160;11.428;2024-01-27T19:37:51;1.30;99.90
45329;DHT22;72636;48.160;11.428;2024-01-27T19:40:17;1.20;99.90
45329;DHT22;72636;48.160;11.428;2024-01-27T19:42:42;1.30;99.90
45329;DHT22;72636;48.160;11.428;2024-01-27T19:45:09;1.20;99.90
45329;DHT22;72636;48.160;11.428;2024-01-27T19:47:35;1.10;99.90
45329;DHT22;72636;48.160;11.428;2024-01-27T19:50:01;1.10;99.90
45329;DHT22;72636;48.160;11.428;2024-01-27T19:52:28;1.10;99.90
45329;DHT22;72636;48.160;11.428;2024-01-27T19:54:54;1.10;99.90
45329;DHT22;72636;48.160;11.428;2024-01-27T19:57:20;1.10;99.90
45329;DHT22;72636;48.160;11.428;2024-01-27T19:59:46;1.10;99.90
45329;DHT22;72636;48.160;11.428;2024-01-27T20:02:11;1.00;99.90
45329;DHT22;72636;48.160;11.428;2024-01-27T20:04:38;1.00;99.90
45329;DHT22;72636;48.160;11.428;2024-01-27T20:07:04;1.00;99.90
45329;DHT22;72636;48.160;11.428;2024-01-27T20:09:29;0.90;99.90
45329;DHT22;72636;48.160;11.428;2024-01-27T20:11:56;0.90;99.90
45329;DHT22;72636;48.160;11.428;2024-01-27T20:14:22;0.90;99.90
45329;DHT22;72636;48.160;11.428;2024-01-27T20:16:50;0.90;99.90
45329;DHT22;72636;48.160;11.428;2024-01-27T20:19:17;0.80;99.90
45329;DHT22;72636;48.160;11.428;2024-01-27T20:21:46;0.80;99.90
45329;DHT22;72636;48.160;11.428;2024-01-27T20:24:13;0.70;99.90
45329;DHT22;72636;48.160;11.428;2024-01-27T20:26:41;0.70;99.90
45329;DHT22;72636;48.160;11.428;2024-01-27T20:29:07;0.70;99.90
45329;DHT22;72636;48.160;11.428;2024-01-27T20:31:33;0.70;99.90
45329;DHT22;72636;48.160;11.428;2024-01-27T20:34:00;0.70;99.90
45329;DHT22;72636;48.160;11.428;2024-01-27T20:36:26;0.60;99.90
45329;DHT22;72636;48.160;11.428;2024-01-27T20:38:52;0.60;99.90
45329;DHT22;72636;48.160;11.428;2024-01-27T20:41:19;0.60;99.90
45329;DHT22;72636;48.160;11.428;2024-01-27T20:43:45;0.60;99.90
45329;DHT22;72636;48.160;11.428;2024-01-27T20:46:12;0.60;99.90
45329;DHT22;72636;48.160;11.428;2024-01-27T20:48:39;0.60;99.90
45329;DHT22;72636;48.160;11.428;2024-01-27T20:51:04;0.60;99.90
45329;DHT22;72636;48.160;11.428;2024-01-27T20:53:34;0.50;99.90
45329;DHT22;72636;48.160;11.428;2024-01-27T20:56:00;0.60;99.90
45329;DHT22;72636;48.160;11.428;2024-01-27T20:58:26;0.60;99.90
45329;DHT22;72636;48.160;11.428;2024-01-27T21:00:53;0.50;99.90
45329;DHT22;72636;48.160;11.428;2024-01-27T21:03:19;0.40;99.90
45329;DHT22;72636;48.160;11.428;2024-01-27T21:05:45;0.40;99.90
45329;DHT22;72636;48.160;11.428;2024-01-27T21:08:11;0.50;99.90
45329;DHT22;72636;48.160;11.428;2024-01-27T21:10:37;0.40;99.90
45329;DHT22;72636;48.160;11.428;2024-01-27T21:13:03;0.40;99.90
45329;DHT22;72636;48.160;11.428;2024-01-27T21:15:29;0.40;99.90
45329;DHT22;72636;48.160;11.428;2024-01-27T21:17:55;0.40;99.90
45329;DHT22;72636;48.160;11.428;2024-01-27T21:20:21;0.40;99.90
45329;DHT22;72636;48.160;11.428;2024-01-27T21:22:48;0.40;99.90
45329;DHT22;72636;48.160;11.428;2024-01-27T21:25:14;0.40;99.90
45329;DHT22;72636;48.160;11.428;2024-01-27T21:27:39;0.40;99.90
45329;DHT22;72636;48.160;11.428;2024-01-27T21:30:05;0.40;99.90
45329;DHT22;72636;48.160;11.428;2024-01-27T21:32:34;0.40;99.90
45329;DHT22;72636;48.160;11.428;2024-01-27T21:34:59;0.30;99.90
45329;DHT22;72636;48.160;11.428;2024-01-27T21:37:25;0.40;99.90
45329;DHT22;72636;48.160;11.428;2024-01-27T21:39:51;0.30;99.90
45329;DHT22;72636;48.160;11.428;2024-01-27T21:42:19;0.30;99.90
45329;DHT22;72636;48.160;11.428;2024-01-27T21:44:46;0.30;99.90
45329;DHT22;72636;48.160;11.428;2024-01-27T21:47:12;0.30;99.90
45329;DHT22;72636;48.160;11.428;2024-01-27T21:49:38;0.30;99.90
45329;DHT22;72636;48.160;11.428;2024-01-27T21:52:04;0.20;99.90
45329;DHT22;72636;48.160;11.428;2024-01-27T21:54:30;0.10;99.90
45329;DHT22;72636;48.160;11.428;2024-01-27T21:56:55;0.20;99.90
45329;DHT22;72636;48.160;11.428;2024-01-27T21:59:21;0.10;99.90
45329;DHT22;72636;48.160;11.428;2024-01-27T22:01:48;0.10;99.90
45329;DHT22;72636;48.160;11.428;2024-01-27T22:04:13;0.10;99.90
45329;DHT22;72636;48.160;11.428;2024-01-27T22:06:39;0.00;99.90
45329;DHT22;72636;48.160;11.428;2024-01-27T22:09:05;0.00;99.90
45329;DHT22;72636;48.160;11.428;2024-01-27T22:11:32;0.00;99.90
45329;DHT22;72636;48.160;11.428;2024-01-27T22:13:58;0.10;99.90
45329;DHT22;72636;48.160;11.428;2024-01-27T22:16:23;0.00;99.90
45329;DHT22;72636;48.160;11.428;2024-01-27T22:18:49;0.00;99.90
45329;DHT22;72636;48.160;11.428;2024-01-27T22:21:15;-0.10;99.90
45329;DHT22;72636;48.160;11.428;2024-01-27T22:23:40;-0.10;99.90
45329;DHT22;72636;48.160;11.428;2024-01-27T22:26:06;-0.10;99.90
45329;DHT22;72636;48.160;11.428;2024-01-27T22:28:32;-0.10;99.90
45329;DHT22;72636;48.160;11.428;2024-01-27T22:30:57;0.00;99.90
45329;DHT22;72636;48.160;11.428;2024-01-27T22:33:24;0.00;99.90
45329;DHT22;72636;48.160;11.428;2024-01-27T22:35:49;-0.10;99.90
45329;DHT22;72636;48.160;11.428;2024-01-27T22:38:15;-0.10;99.90
45329;DHT22;72636;48.160;11.428;2024-01-27T22:40:41;-0.20;99.90
45329;DHT22;72636;48.160;11.428;2024-01-27T22:43:07;-0.20;99.90
45329;DHT22;72636;48.160;11.428;2024-01-27T22:45:34;-0.20;99.90
45329;DHT22;72636;48.160;11.428;2024-01-27T22:48:00;-0.30;99.90
45329;DHT22;72636;48.160;11.428;2024-01-27T22:50:28;-0.30;99.90
45329;DHT22;72636;48.160;11.428;2024-01-27T22:52:54;-0.20;99.90
45329;DHT22;72636;48.160;11.428;2024-01-27T22:55:19;-0.30;99.90
45329;DHT22;72636;48.160;11.428;2024-01-27T22:57:46;-0.40;99.90
45329;DHT22;72636;48.160;11.428;2024-01-27T23:00:12;-0.40;99.90
45329;DHT22;72636;48.160;11.428;2024-01-27T23:03:00;-0.40;99.90
45329;DHT22;72636;48.160;11.428;2024-01-27T23:05:26;-0.40;99.90
45329;DHT22;72636;48.160;11.428;2024-01-27T23:07:52;-0.40;99.90
45329;DHT22;72636;48.160;11.428;2024-01-27T23:10:17;-0.40;99.90
45329;DHT22;72636;48.160;11.428;2024-01-27T23:12:43;-0.10;99.90
45329;DHT22;72636;48.160;11.428;2024-01-27T23:15:09;-0.50;99.90
45329;DHT22;72636;48.160;11.428;2024-01-27T23:17:36;-0.50;99.90
45329;DHT22;72636;48.160;11.428;2024-01-27T23:20:02;-0.60;99.90
45329;DHT22;72636;48.160;11.428;2024-01-27T23:22:29;-0.60;99.90
45329;DHT22;72636;48.160;11.428;2024-01-27T23:24:55;-0.60;99.90
45329;DHT22;72636;48.160;11.428;2024-01-27T23:27:20;-0.60;99.90
45329;DHT22;72636;48.160;11.428;2024-01-27T23:29:46;-0.60;99.90
45329;DHT22;72636;48.160;11.428;2024-01-27T23:32:12;-0.70;99.90
45329;DHT22;72636;48.160;11.428;2024-01-27T23:34:37;-0.60;99.90
45329;DHT22;72636;48.160;11.428;2024-01-27T23:37:03;-0.50;99.90
45329;DHT22;72636;48.160;11.428;2024-01-27T23:39:29;-0.70;99.90
45329;DHT22;72636;48.160;11.428;2024-01-27T23:41:54;-0.70;99.90
45329;DHT22;72636;48.160;11.428;2024-01-27T23:44:20;-0.60;99.90
45329;DHT22;72636;48.160;11.428;2024-01-27T23:46:45;-0.70;99.90
45329;DHT22;72636;48.160;11.428;2024-01-27T23:49:11;-0.70;99.90
45329;DHT22;72636;48.160;11.428;2024-01-27T23:51:37;-0.70;99.90
45329;DHT22;72636;48.160;11.428;2024-01-27T23:54:04;-0.70;99.90
45329;DHT22;72636;48.160;11.428;2024-01-27T23:56:41;-0.70;99.90
45329;DHT22;72636;48.160;11.428;2024-01-27T23:59:09;-0.80;99.90
